createdAt,value
2023-02-27T00:01:53.725Z,96285.94
2023-02-27T00:04:20.305Z,96302.97
2023-02-27T00:06:46.910Z,96314.88
2023-02-27T00:09:13.510Z,96320.44
2023-02-27T00:11:40.291Z,96292.69
2023-02-27T00:14:06.927Z,96310.09
2023-02-27T00:16:34.349Z,96306.16
2023-02-27T00:19:04.600Z,96287.13
2023-02-27T00:21:32.581Z,96238.78
2023-02-27T00:23:59.270Z,96266.13
2023-02-27T00:26:26.080Z,96248.28
2023-02-27T00:28:52.626Z,96253.06
2023-02-27T00:31:19.328Z,96297.84
2023-02-27T00:33:45.900Z,96280.81
2023-02-27T00:36:12.863Z,96293.88
2023-02-27T00:38:39.595Z,96244.72
2023-02-27T00:41:06.247Z,96299.84
2023-02-27T00:43:32.925Z,96304.97
2023-02-27T00:45:59.481Z,96310.13
2023-02-27T00:48:26.083Z,96283.97
2023-02-27T00:50:52.720Z,96283.97
2023-02-27T00:53:19.318Z,96301.03
2023-02-27T00:55:46.037Z,96314.88
2023-02-27T00:58:12.646Z,96291.91
2023-02-27T01:00:39.247Z,96287.13
2023-02-27T01:03:05.944Z,96235.56
2023-02-27T01:05:32.674Z,96256.59
2023-02-27T01:07:59.270Z,96308.56
2023-02-27T01:10:25.910Z,96001.09
2023-02-27T01:12:52.641Z,96314.09
2023-02-27T01:15:19.296Z,96316.47
2023-02-27T01:17:47.998Z,96306.97
2023-02-27T01:20:15.586Z,96314.09
2023-02-27T01:22:42.637Z,96279.59
2023-02-27T01:25:09.983Z,96319.66
2023-02-27T01:27:36.758Z,96303.78
2023-02-27T01:30:04.056Z,96304.59
2023-02-27T01:32:30.683Z,96312.91
2023-02-27T01:34:57.296Z,96312.88
2023-02-27T01:37:23.926Z,96317.22
2023-02-27T01:39:50.624Z,96304.50
2023-02-27T01:42:23.361Z,96312.84
2023-02-27T01:45:22.402Z,96330.72
2023-02-27T01:47:52.888Z,96336.22
2023-02-27T01:50:20.232Z,96344.97
2023-02-27T01:52:53.186Z,96322.78
2023-02-27T01:55:20.624Z,96331.47
2023-02-27T01:57:49.378Z,96327.88
2023-02-27T02:00:16.557Z,96299.75
2023-02-27T02:02:52.505Z,96342.19
2023-02-27T02:05:20.669Z,96298.16
2023-02-27T02:07:49.020Z,96337.84
2023-02-27T02:10:16.655Z,96347.28
2023-02-27T02:12:45.158Z,96348.84
2023-02-27T02:15:11.941Z,96347.69
2023-02-27T02:18:16.419Z,96339.34
2023-02-27T02:21:01.560Z,96353.63
2023-02-27T02:24:05.913Z,96356.69
2023-02-27T02:26:51.104Z,96363.81
2023-02-27T02:29:26.753Z,96361.44
2023-02-27T02:31:59.173Z,96373.31
2023-02-27T02:34:31.951Z,96363.75
2023-02-27T02:37:01.306Z,96359.81
2023-02-27T02:40:03.581Z,96374.84
2023-02-27T02:42:35.176Z,96374.84
2023-02-27T02:45:43.120Z,96374.06
2023-02-27T02:48:16.630Z,96371.66
2023-02-27T02:50:55.326Z,96356.66
2023-02-27T02:53:36.175Z,96369.34
2023-02-27T02:56:24.990Z,96366.97
2023-02-27T02:59:04.460Z,96366.09
2023-02-27T03:01:37.400Z,96392.22
2023-02-27T03:04:10.756Z,96394.56
2023-02-27T03:06:43.357Z,96323.78
2023-02-27T03:09:19.716Z,96306.34
2023-02-27T03:11:51.155Z,96396.84
2023-02-27T03:14:33.657Z,96396.09
2023-02-27T03:17:06.057Z,96392.91
2023-02-27T03:19:57.360Z,96397.56
2023-02-27T03:22:31.069Z,96392.72
2023-02-27T03:25:01.377Z,96372.13
2023-02-27T03:27:38.445Z,96370.53
2023-02-27T03:30:10.391Z,96351.34
2023-02-27T03:32:43.674Z,96390.69
2023-02-27T03:35:12.731Z,96411.66
2023-02-27T03:37:59.644Z,96423.63
2023-02-27T03:40:35.513Z,96411.31
2023-02-27T03:43:34.937Z,96319.75
2023-02-27T03:46:10.580Z,96428.91
2023-02-27T03:48:37.655Z,96308.69
2023-02-27T03:51:04.644Z,96414.09
2023-02-27T03:53:58.861Z,96315.16
2023-02-27T03:56:31.805Z,96374.16
2023-02-27T03:58:58.674Z,96441.63
2023-02-27T04:01:26.240Z,96434.56
2023-02-27T04:04:02.755Z,96443.31
2023-02-27T04:06:49.300Z,96460.13
2023-02-27T04:09:45.750Z,96404.56
2023-02-27T04:12:21.068Z,96480.56
2023-02-27T04:15:16.581Z,96476.28
2023-02-27T04:18:18.909Z,96418.25
2023-02-27T04:20:49.632Z,96471.22
2023-02-27T04:23:26.658Z,96487.16
2023-02-27T04:26:39.563Z,96495.38
2023-02-27T04:29:17.423Z,96419.81
2023-02-27T04:32:10.468Z,96456.38
2023-02-27T04:34:53.234Z,96455.88
2023-02-27T04:37:44.219Z,96211.44
2023-02-27T04:40:15.827Z,96458.47
2023-02-27T04:42:48.645Z,96515.84
2023-02-27T04:45:21.160Z,96519.91
2023-02-27T04:47:56.326Z,96524.28
2023-02-27T04:50:29.726Z,96520.16
2023-02-27T04:53:05.125Z,96526.59
2023-02-27T04:55:37.268Z,96532.38
2023-02-27T04:58:27.527Z,96512.59
2023-02-27T05:01:01.547Z,96556.59
2023-02-27T05:03:34.651Z,96557.56
2023-02-27T05:06:02.932Z,96541.75
2023-02-27T05:08:49.522Z,96572.09
2023-02-27T05:11:25.909Z,96591.91
2023-02-27T05:13:58.946Z,96608.56
2023-02-27T05:16:41.553Z,96616.44
2023-02-27T05:19:08.891Z,96631.41
2023-02-27T05:22:05.842Z,96656.97
2023-02-27T05:24:50.611Z,96666.72
2023-02-27T05:27:20.285Z,96681.88
2023-02-27T05:29:58.313Z,96684.31
2023-02-27T05:32:34.029Z,96702.44
2023-02-27T05:35:24.797Z,96724.66
2023-02-27T05:38:00.450Z,96685.59
2023-02-27T05:40:34.002Z,96718.91
2023-02-27T05:43:03.569Z,96746.88
2023-02-27T05:45:32.729Z,96691.50
2023-02-27T05:48:04.907Z,96751.72
2023-02-27T05:50:34.628Z,96694.41
2023-02-27T05:53:04.634Z,96771.69
2023-02-27T05:55:57.621Z,96685.38
2023-02-27T05:58:30.276Z,96770.63
2023-02-27T06:01:06.240Z,96796.91
2023-02-27T06:03:35.673Z,96787.91
2023-02-27T06:06:08.571Z,96771.41
2023-02-27T06:08:35.959Z,96727.78
2023-02-27T06:11:02.901Z,96755.94
2023-02-27T06:13:29.577Z,96758.34
2023-02-27T06:15:56.115Z,96706.03
2023-02-27T06:18:23.186Z,96755.25
2023-02-27T06:20:50.073Z,96759.03
2023-02-27T06:23:17.315Z,96731.56
2023-02-27T06:25:44.188Z,96749.44
2023-02-27T06:28:11.520Z,96736.13
2023-02-27T06:30:38.205Z,96745.06
2023-02-27T06:33:05.480Z,96729.31
2023-02-27T06:35:32.558Z,96714.78
2023-02-27T06:37:59.539Z,96711.59
2023-02-27T06:40:26.398Z,96710.53
2023-02-27T06:42:52.959Z,96722.19
2023-02-27T06:45:19.628Z,96692.56
2023-02-27T06:47:46.287Z,96654.81
2023-02-27T06:50:13.930Z,96550.31
2023-02-27T06:52:41.058Z,96664.97
2023-02-27T06:55:09.372Z,96706.34
2023-02-27T06:57:36.317Z,96684.50
2023-02-27T07:00:04.401Z,96711.09
2023-02-27T07:02:31.235Z,96715.13
2023-02-27T07:04:58.088Z,96729.44
2023-02-27T07:07:33.347Z,96728.16
2023-02-27T07:10:05.772Z,96652.88
2023-02-27T07:12:32.410Z,96732.91
2023-02-27T07:14:59.231Z,96443.66
2023-02-27T07:17:25.961Z,96749.53
2023-02-27T07:19:52.557Z,96765.19
2023-02-27T07:22:19.149Z,96765.06
2023-02-27T07:24:45.732Z,96729.97
2023-02-27T07:27:12.334Z,96772.78
2023-02-27T07:29:38.899Z,96777.84
2023-02-27T07:32:05.759Z,96723.81
2023-02-27T07:34:32.420Z,96770.72
2023-02-27T07:36:59.008Z,96772.25
2023-02-27T07:39:25.667Z,96726.22
2023-02-27T07:41:52.292Z,96699.50
2023-02-27T07:44:19.033Z,96769.09
2023-02-27T07:46:47.424Z,96758.41
2023-02-27T07:49:14.236Z,96784.91
2023-02-27T07:51:41.052Z,96651.66
2023-02-27T07:54:07.859Z,96769.53
2023-02-27T07:56:34.721Z,96745.69
2023-02-27T07:59:01.460Z,96754.31
2023-02-27T08:01:28.161Z,96715.34
2023-02-27T08:03:56.480Z,96768.47
2023-02-27T08:06:24.324Z,96775.91
2023-02-27T08:08:51.926Z,96780.91
2023-02-27T08:11:18.851Z,96714.03
2023-02-27T08:14:02.815Z,96733.00
2023-02-27T08:16:31.432Z,96715.53
2023-02-27T08:18:58.739Z,96466.03
2023-02-27T08:21:25.709Z,96778.09
2023-02-27T08:23:52.535Z,96757.50
2023-02-27T08:26:19.360Z,96778.72
2023-02-27T08:28:45.995Z,96776.06
2023-02-27T08:31:12.874Z,96776.66
2023-02-27T08:33:40.093Z,96777.81
2023-02-27T08:36:08.057Z,96778.38
2023-02-27T08:38:34.726Z,96789.97
2023-02-27T08:41:01.432Z,96727.91
2023-02-27T08:43:28.044Z,96798.19
2023-02-27T08:45:54.903Z,96799.91
2023-02-27T08:48:21.595Z,96786.19
2023-02-27T08:50:48.227Z,96768.66
2023-02-27T08:53:14.901Z,96723.25
2023-02-27T08:55:42.680Z,96765.81
2023-02-27T08:58:10.161Z,96803.97
2023-02-27T09:00:36.883Z,96802.94
2023-02-27T09:03:03.663Z,96817.03
2023-02-27T09:05:30.396Z,96819.41
2023-02-27T09:07:57.004Z,96818.97
2023-02-27T09:10:23.750Z,96782.75
2023-02-27T09:12:50.363Z,96823.88
2023-02-27T09:15:17.137Z,96824.34
2023-02-27T09:17:43.814Z,96783.06
2023-02-27T09:20:12.691Z,96834.03
2023-02-27T09:22:39.626Z,96780.94
2023-02-27T09:25:07.103Z,96833.16
2023-02-27T09:27:34.542Z,96832.50
2023-02-27T09:30:01.346Z,96837.13
2023-02-27T09:32:28.237Z,96785.34
2023-02-27T09:34:55.056Z,96814.38
2023-02-27T09:37:21.641Z,96502.22
2023-02-27T09:39:48.235Z,96841.31
2023-02-27T09:42:21.142Z,96723.91
2023-02-27T09:44:49.285Z,96845.28
2023-02-27T09:47:30.535Z,96848.63
2023-02-27T09:50:18.425Z,96851.53
2023-02-27T09:52:45.225Z,96844.16
2023-02-27T09:55:17.588Z,96841.84
2023-02-27T09:58:01.710Z,96844.50
2023-02-27T10:00:52.807Z,96803.41
2023-02-27T10:03:45.702Z,96834.19
2023-02-27T10:06:12.200Z,96831.41
2023-02-27T10:08:50.724Z,96822.47
2023-02-27T10:11:40.311Z,96812.69
2023-02-27T10:14:29.953Z,96818.47
2023-02-27T10:16:59.183Z,96803.16
2023-02-27T10:19:32.185Z,96808.59
2023-02-27T10:22:02.149Z,96777.69
2023-02-27T10:24:37.993Z,96823.66
2023-02-27T10:27:11.704Z,96832.31
2023-02-27T10:29:41.818Z,96841.66
2023-02-27T10:32:22.863Z,96797.78
2023-02-27T10:35:07.129Z,96776.25
2023-02-27T10:37:36.352Z,96837.94
2023-02-27T10:40:06.391Z,96812.34
2023-02-27T10:42:38.845Z,96831.47
2023-02-27T10:45:12.352Z,96771.22
2023-02-27T10:47:39.800Z,96814.41
2023-02-27T10:50:23.192Z,96813.03
2023-02-27T10:52:52.085Z,96793.50
2023-02-27T10:55:23.374Z,96811.03
2023-02-27T10:57:50.229Z,96816.44
2023-02-27T11:00:28.329Z,96849.56
2023-02-27T11:02:55.366Z,96809.00
2023-02-27T11:05:33.924Z,96789.25
2023-02-27T11:08:30.647Z,96810.56
2023-02-27T11:11:04.933Z,96801.31
2023-02-27T11:13:36.195Z,96784.75
2023-02-27T11:16:09.643Z,96802.66
2023-02-27T11:18:37.742Z,96801.63
2023-02-27T11:21:10.100Z,96807.31
2023-02-27T11:23:37.238Z,96787.53
2023-02-27T11:26:15.414Z,96801.34
2023-02-27T11:28:42.487Z,96740.59
2023-02-27T11:31:23.445Z,96803.13
2023-02-27T11:33:58.854Z,96765.91
2023-02-27T11:36:49.656Z,96808.09
2023-02-27T11:39:33.319Z,96754.13
2023-02-27T11:42:17.147Z,96756.47
2023-02-27T11:46:11.365Z,96798.88
2023-02-27T11:48:18.513Z,96802.75
2023-02-27T11:51:11.489Z,96723.75
2023-02-27T11:54:04.448Z,96800.88
2023-02-27T11:56:37.734Z,96806.25
2023-02-27T11:59:10.338Z,96801.94
2023-02-27T12:02:01.724Z,96892.53
2023-02-27T12:04:41.982Z,96786.09
2023-02-27T12:07:23.502Z,96800.47
2023-02-27T12:09:58.901Z,96802.63
2023-02-27T12:12:41.651Z,96794.69
2023-02-27T12:15:27.455Z,96808.22
2023-02-27T12:18:05.562Z,96698.19
2023-02-27T12:20:37.662Z,96809.25
2023-02-27T12:23:15.656Z,96803.19
2023-02-27T12:25:50.929Z,96788.00
2023-02-27T12:28:33.311Z,96806.31
2023-02-27T12:31:28.042Z,96807.13
2023-02-27T12:34:02.542Z,96808.44
2023-02-27T12:36:29.212Z,96815.53
2023-02-27T12:38:56.140Z,96823.00
2023-02-27T12:41:44.021Z,96814.69
2023-02-27T12:44:16.557Z,96817.09
2023-02-27T12:47:09.704Z,96822.63
2023-02-27T12:49:52.636Z,96816.53
2023-02-27T12:52:28.852Z,96813.94
2023-02-27T12:55:16.596Z,96818.38
2023-02-27T12:58:25.081Z,96809.59
2023-02-27T13:01:06.048Z,96751.81
2023-02-27T13:03:35.874Z,96809.66
2023-02-27T13:06:27.894Z,96822.47
2023-02-27T13:09:15.101Z,96817.94
2023-02-27T13:11:41.775Z,96822.56
2023-02-27T13:14:28.714Z,96818.22
2023-02-27T13:17:22.448Z,96771.38
2023-02-27T13:20:16.802Z,96762.84
2023-02-27T13:23:15.478Z,96812.69
2023-02-27T13:25:46.889Z,96758.69
2023-02-27T13:28:18.254Z,96765.31
2023-02-27T13:30:56.873Z,96812.41
2023-02-27T13:33:38.145Z,96813.09
2023-02-27T13:36:41.908Z,96446.84
2023-02-27T13:39:39.957Z,96817.03
2023-02-27T13:42:35.881Z,96813.53
2023-02-27T13:45:44.125Z,96794.81
2023-02-27T13:48:40.190Z,96815.59
2023-02-27T13:51:11.552Z,96809.31
2023-02-27T13:53:38.550Z,96783.00
2023-02-27T13:56:23.900Z,96807.06
2023-02-27T13:58:51.096Z,96804.47
2023-02-27T14:01:28.747Z,96807.72
2023-02-27T14:04:02.892Z,96785.72
2023-02-27T14:06:29.948Z,96738.03
2023-02-27T14:09:08.905Z,96796.28
2023-02-27T14:11:51.112Z,96790.81
2023-02-27T14:14:36.427Z,96806.16
2023-02-27T14:17:03.766Z,96765.81
2023-02-27T14:19:42.622Z,96799.25
2023-02-27T14:22:10.789Z,96791.47
2023-02-27T14:25:22.154Z,96796.78
2023-02-27T14:27:56.952Z,96795.88
2023-02-27T14:30:34.860Z,96804.31
2023-02-27T14:33:38.035Z,96807.44
2023-02-27T14:36:09.926Z,96783.09
2023-02-27T14:38:38.609Z,96803.50
2023-02-27T14:41:34.381Z,96794.59
2023-02-27T14:44:01.977Z,96807.28
2023-02-27T14:46:32.933Z,96759.56
2023-02-27T14:49:02.831Z,96730.53
2023-02-27T14:51:34.716Z,96791.63
2023-02-27T14:54:22.796Z,96774.59
2023-02-27T14:57:01.052Z,96811.47
2023-02-27T14:59:31.094Z,96723.91
2023-02-27T15:02:02.043Z,96827.50
2023-02-27T15:04:31.175Z,96834.00
2023-02-27T15:06:59.570Z,96769.75
2023-02-27T15:09:31.912Z,96840.16
2023-02-27T15:12:04.086Z,96850.81
2023-02-27T15:14:36.108Z,96831.31
2023-02-27T15:17:03.783Z,96846.72
2023-02-27T15:19:31.351Z,96846.59
2023-02-27T15:22:01.225Z,96850.25
2023-02-27T15:24:47.832Z,96851.50
2023-02-27T15:27:22.832Z,96862.06
2023-02-27T15:29:55.973Z,96857.63
2023-02-27T15:32:39.793Z,96538.03
2023-02-27T15:35:35.857Z,96862.00
2023-02-27T15:38:02.799Z,96799.88
2023-02-27T15:40:32.990Z,96813.56
2023-02-27T15:43:01.209Z,96880.03
2023-02-27T15:45:35.805Z,96887.34
2023-02-27T15:48:03.798Z,96890.59
2023-02-27T15:50:38.086Z,96890.19
2023-02-27T15:53:07.619Z,96885.06
2023-02-27T15:55:37.642Z,96840.56
2023-02-27T15:58:19.465Z,96891.44
2023-02-27T16:00:46.752Z,96896.31
2023-02-27T16:03:21.452Z,96803.28
2023-02-27T16:05:52.870Z,96820.78
2023-02-27T16:08:21.168Z,96908.41
2023-02-27T16:10:49.702Z,96922.81
2023-02-27T16:13:25.102Z,96928.38
2023-02-27T16:16:04.088Z,96931.97
2023-02-27T16:18:32.831Z,96925.94
2023-02-27T16:21:12.937Z,96945.03
2023-02-27T16:23:39.841Z,96892.34
2023-02-27T16:26:28.015Z,96949.66
2023-02-27T16:29:15.283Z,96960.69
2023-02-27T16:31:49.276Z,96962.38
2023-02-27T16:34:28.022Z,96964.84
2023-02-27T16:37:03.659Z,96975.19
2023-02-27T16:39:31.239Z,96960.47
2023-02-27T16:41:59.897Z,96987.56
2023-02-27T16:44:27.129Z,96995.88
2023-02-27T16:46:55.795Z,96998.19
2023-02-27T16:49:28.845Z,96961.66
2023-02-27T16:51:56.082Z,97003.91
2023-02-27T16:54:23.331Z,97004.66
2023-02-27T16:56:50.665Z,97011.75
2023-02-27T16:59:27.756Z,97022.97
2023-02-27T17:01:55.808Z,97019.03
2023-02-27T17:04:25.946Z,97019.84
2023-02-27T17:06:53.351Z,97012.53
2023-02-27T17:09:20.509Z,96659.34
2023-02-27T17:11:47.228Z,97024.16
2023-02-27T17:14:13.893Z,96991.75
2023-02-27T17:16:40.706Z,97036.47
2023-02-27T17:19:07.742Z,97048.09
2023-02-27T17:21:34.997Z,97063.22
2023-02-27T17:24:01.805Z,97060.84
2023-02-27T17:26:29.049Z,97022.13
2023-02-27T17:28:56.548Z,97061.25
2023-02-27T17:31:24.242Z,97062.75
2023-02-27T17:33:52.019Z,97013.25
2023-02-27T17:36:18.799Z,97021.78
2023-02-27T17:38:45.541Z,97068.91
2023-02-27T17:41:13.938Z,97081.66
2023-02-27T17:43:43.840Z,97077.63
2023-02-27T17:46:12.015Z,97086.47
2023-02-27T17:48:39.170Z,97094.41
2023-02-27T17:51:11.583Z,97091.09
2023-02-27T17:53:38.898Z,97088.03
2023-02-27T17:56:06.554Z,97058.47
2023-02-27T17:58:34.094Z,97081.53
2023-02-27T18:01:09.609Z,97113.56
2023-02-27T18:03:36.189Z,97058.50
2023-02-27T18:06:03.361Z,97117.06
2023-02-27T18:08:31.460Z,97109.53
2023-02-27T18:10:58.847Z,97128.28
2023-02-27T18:13:27.441Z,97019.94
2023-02-27T18:15:57.255Z,97092.06
2023-02-27T18:18:23.960Z,97119.75
2023-02-27T18:21:06.160Z,97130.72
2023-02-27T18:23:32.880Z,97093.22
2023-02-27T18:26:00.252Z,97151.25
2023-02-27T18:28:28.016Z,97134.44
2023-02-27T18:30:54.912Z,97157.06
2023-02-27T18:33:23.111Z,97157.38
2023-02-27T18:35:50.539Z,97115.81
2023-02-27T18:38:17.536Z,97109.16
2023-02-27T18:40:44.345Z,97112.22
2023-02-27T18:43:11.814Z,97165.75
2023-02-27T18:45:38.665Z,97162.53
2023-02-27T18:48:06.347Z,97121.91
2023-02-27T18:50:33.214Z,97168.03
2023-02-27T18:53:00.320Z,97130.56
2023-02-27T18:55:27.001Z,97180.97
2023-02-27T18:57:53.633Z,97177.94
2023-02-27T19:00:21.906Z,97181.72
2023-02-27T19:02:48.610Z,97142.94
2023-02-27T19:05:15.444Z,97196.59
2023-02-27T19:07:42.542Z,97174.34
2023-02-27T19:10:10.386Z,97167.16
2023-02-27T19:12:37.229Z,97200.03
2023-02-27T19:15:04.772Z,97202.66
2023-02-27T19:17:31.433Z,97203.91
2023-02-27T19:19:58.142Z,97084.41
2023-02-27T19:22:29.381Z,97204.75
2023-02-27T19:24:56.963Z,97069.69
2023-02-27T19:27:23.745Z,97206.38
2023-02-27T19:29:50.807Z,97210.75
2023-02-27T19:32:17.595Z,97208.56
2023-02-27T19:34:44.410Z,97197.03
2023-02-27T19:37:10.988Z,97217.00
2023-02-27T19:39:37.676Z,97224.84
2023-02-27T19:42:04.295Z,97222.34
2023-02-27T19:44:30.933Z,97158.00
2023-02-27T19:46:57.649Z,97163.72
2023-02-27T19:49:24.281Z,97245.09
2023-02-27T19:51:50.873Z,97225.13
2023-02-27T19:54:17.576Z,97237.19
2023-02-27T19:56:44.351Z,97238.69
2023-02-27T19:59:12.771Z,97247.16
2023-02-27T20:01:39.923Z,97249.91
2023-02-27T20:04:07.957Z,97257.09
2023-02-27T20:06:42.122Z,97264.34
2023-02-27T20:09:15.222Z,97215.88
2023-02-27T20:11:46.166Z,97264.25
2023-02-27T20:14:14.990Z,97271.72
2023-02-27T20:16:42.442Z,97274.28
2023-02-27T20:19:12.897Z,97278.94
2023-02-27T20:21:40.054Z,97287.22
2023-02-27T20:24:06.986Z,97288.72
2023-02-27T20:26:36.477Z,97288.94
2023-02-27T20:29:09.183Z,97287.69
2023-02-27T20:31:37.833Z,97294.91
2023-02-27T20:34:10.996Z,97296.84
2023-02-27T20:36:39.213Z,97243.44
2023-02-27T20:39:06.870Z,97295.16
2023-02-27T20:41:34.747Z,97268.97
2023-02-27T20:44:01.619Z,97307.34
2023-02-27T20:46:29.631Z,97307.03
2023-02-27T20:48:59.458Z,97321.47
2023-02-27T20:51:28.583Z,97317.31
2023-02-27T20:53:58.430Z,97316.63
2023-02-27T20:56:34.105Z,97313.69
2023-02-27T20:59:04.954Z,97321.56
2023-02-27T21:01:32.024Z,97327.13
2023-02-27T21:03:59.771Z,97320.81
2023-02-27T21:06:27.049Z,97334.94
2023-02-27T21:08:55.972Z,97338.00
2023-02-27T21:11:29.218Z,97331.09
2023-02-27T21:13:57.267Z,97331.84
2023-02-27T21:16:25.781Z,97344.31
2023-02-27T21:18:53.025Z,97340.69
2023-02-27T21:21:24.007Z,97344.31
2023-02-27T21:23:51.714Z,97302.88
2023-02-27T21:26:21.006Z,97347.00
2023-02-27T21:28:54.931Z,97345.16
2023-02-27T21:31:23.818Z,97345.72
2023-02-27T21:33:51.107Z,97346.03
2023-02-27T21:36:17.836Z,97340.75
2023-02-27T21:38:45.959Z,97309.06
2023-02-27T21:41:13.413Z,97348.00
2023-02-27T21:43:40.687Z,97353.59
2023-02-27T21:46:10.198Z,97356.16
2023-02-27T21:48:36.941Z,97357.25
2023-02-27T21:51:04.308Z,97362.28
2023-02-27T21:53:31.649Z,97383.53
2023-02-27T21:56:09.565Z,97273.84
2023-02-27T21:58:37.301Z,97351.34
2023-02-27T22:01:17.800Z,97342.97
2023-02-27T22:03:49.279Z,97347.03
2023-02-27T22:06:16.364Z,97363.94
2023-02-27T22:08:43.444Z,97365.63
2023-02-27T22:11:11.128Z,97375.28
2023-02-27T22:13:37.948Z,97307.56
2023-02-27T22:16:06.863Z,97377.50
2023-02-27T22:18:33.628Z,97373.44
2023-02-27T22:21:01.305Z,97335.09
2023-02-27T22:23:28.262Z,97390.13
2023-02-27T22:26:06.908Z,97389.44
2023-02-27T22:28:34.488Z,97359.81
2023-02-27T22:31:07.252Z,97387.09
2023-02-27T22:33:34.389Z,97387.88
2023-02-27T22:36:01.048Z,97381.63
2023-02-27T22:38:28.908Z,97389.38
2023-02-27T22:40:55.473Z,97388.75
2023-02-27T22:43:22.886Z,97328.50
2023-02-27T22:45:49.580Z,97349.44
2023-02-27T22:48:16.229Z,97400.06
2023-02-27T22:50:42.788Z,97402.41
2023-02-27T22:53:09.364Z,97410.03
2023-02-27T22:55:35.981Z,97341.94
2023-02-27T22:58:02.728Z,97410.88
2023-02-27T23:00:29.369Z,97408.34
2023-02-27T23:02:55.961Z,97405.75
2023-02-27T23:05:22.544Z,97369.69
2023-02-27T23:07:49.092Z,97384.16
2023-02-27T23:10:15.763Z,97335.94
2023-02-27T23:12:42.412Z,97400.44
2023-02-27T23:15:09.817Z,97408.97
2023-02-27T23:17:41.447Z,97415.69
2023-02-27T23:20:15.936Z,97412.47
2023-02-27T23:22:42.551Z,97419.75
2023-02-27T23:25:11.780Z,97429.09
2023-02-27T23:27:38.515Z,97371.63
2023-02-27T23:30:06.210Z,97423.66
2023-02-27T23:32:38.303Z,97423.13
2023-02-27T23:35:05.260Z,97439.56
2023-02-27T23:37:31.804Z,97432.34
2023-02-27T23:39:58.393Z,97437.56
2023-02-27T23:42:24.952Z,97449.63
2023-02-27T23:45:10.097Z,97456.00
2023-02-27T23:47:45.786Z,97451.81
2023-02-27T23:50:13.115Z,97402.41
2023-02-27T23:52:39.829Z,97466.69
2023-02-27T23:55:07.029Z,97477.19
2023-02-27T23:57:33.653Z,97482.00
